createdAt,value
2023-04-16T00:01:17.232Z,15.50
2023-04-16T00:03:44.569Z,15.49
2023-04-16T00:06:12.693Z,15.01
2023-04-16T00:08:41.131Z,15.25
2023-04-16T00:11:08.419Z,15.42
2023-04-16T00:13:35.796Z,15.28
2023-04-16T00:16:03.107Z,15.36
2023-04-16T00:18:30.392Z,15.30
2023-04-16T00:20:57.568Z,14.30
2023-04-16T00:23:25.569Z,14.88
2023-04-16T00:25:53.928Z,14.78
2023-04-16T00:28:21.267Z,14.95
2023-04-16T00:30:48.455Z,14.86
2023-04-16T00:33:17.235Z,14.85
2023-04-16T00:35:48.091Z,14.64
2023-04-16T00:38:15.357Z,14.95
2023-04-16T00:40:42.528Z,14.59
2023-04-16T00:43:09.771Z,13.94
2023-04-16T00:45:37.324Z,14.86
2023-04-16T00:48:06.115Z,14.85
2023-04-16T00:50:34.116Z,14.88
2023-04-16T00:53:02.405Z,14.77
2023-04-16T00:55:29.935Z,14.56
2023-04-16T00:57:56.988Z,14.38
2023-04-16T01:00:24.357Z,14.79
2023-04-16T01:02:51.701Z,14.73
2023-04-16T01:05:19.790Z,14.65
2023-04-16T01:07:46.986Z,14.81
2023-04-16T01:10:14.171Z,14.30
2023-04-16T01:12:41.195Z,14.71
2023-04-16T01:15:08.861Z,14.74
2023-04-16T01:17:36.098Z,14.80
2023-04-16T01:20:03.399Z,14.79
2023-04-16T01:22:30.699Z,14.73
2023-04-16T01:24:57.709Z,14.84
2023-04-16T01:27:24.981Z,14.80
2023-04-16T01:29:52.262Z,14.84
2023-04-16T01:32:25.433Z,14.81
2023-04-16T01:34:52.523Z,14.78
2023-04-16T01:37:19.733Z,14.43
2023-04-16T01:39:47.004Z,14.90
2023-04-16T01:42:14.134Z,14.97
2023-04-16T01:44:41.205Z,14.83
2023-04-16T01:47:08.830Z,14.89
2023-04-16T01:49:36.592Z,14.58
2023-04-16T01:52:03.815Z,14.88
2023-04-16T01:54:31.038Z,14.88
2023-04-16T01:56:59.284Z,14.55
2023-04-16T01:59:26.455Z,14.73
2023-04-16T02:01:54.291Z,14.60
2023-04-16T02:04:21.715Z,14.37
2023-04-16T02:06:49.033Z,14.78
2023-04-16T02:09:16.309Z,14.10
2023-04-16T02:11:43.504Z,14.40
2023-04-16T02:14:10.871Z,14.33
2023-04-16T02:16:38.228Z,14.33
2023-04-16T02:19:31.551Z,14.61
2023-04-16T02:21:58.884Z,14.66
2023-04-16T02:24:26.207Z,14.63
2023-04-16T02:26:54.332Z,14.42
2023-04-16T02:29:22.743Z,14.60
2023-04-16T02:32:00.036Z,14.59
2023-04-16T02:34:28.628Z,14.39
2023-04-16T02:36:56.163Z,14.63
2023-04-16T02:39:23.312Z,14.58
2023-04-16T02:41:50.734Z,14.59
2023-04-16T02:44:17.934Z,14.43
2023-04-16T02:46:45.613Z,14.41
2023-04-16T02:49:12.989Z,14.42
2023-04-16T02:51:40.169Z,14.26
2023-04-16T02:54:07.562Z,14.48
2023-04-16T02:56:34.618Z,14.41
2023-04-16T02:59:01.712Z,14.38
2023-04-16T03:01:29.183Z,14.16
2023-04-16T03:03:56.865Z,14.46
2023-04-16T03:06:24.087Z,14.34
2023-04-16T03:08:51.281Z,14.27
2023-04-16T03:11:18.482Z,14.00
2023-04-16T03:13:46.119Z,14.42
2023-04-16T03:16:13.283Z,14.20
2023-04-16T03:18:40.574Z,14.20
2023-04-16T03:21:07.688Z,14.39
2023-04-16T03:23:35.943Z,14.57
2023-04-16T03:26:03.158Z,14.58
2023-04-16T03:28:30.508Z,14.59
2023-04-16T03:30:58.744Z,14.15
2023-04-16T03:33:26.397Z,14.61
2023-04-16T03:35:58.085Z,14.45
2023-04-16T03:38:27.440Z,14.38
2023-04-16T03:40:57.015Z,13.99
2023-04-16T03:43:24.186Z,13.69
2023-04-16T03:45:51.503Z,13.89
2023-04-16T03:48:21.943Z,13.67
2023-04-16T03:50:49.234Z,13.47
2023-04-16T03:53:19.026Z,13.56
2023-04-16T03:55:50.510Z,13.72
2023-04-16T03:58:18.196Z,13.23
2023-04-16T04:00:45.372Z,13.41
2023-04-16T04:03:17.342Z,12.74
2023-04-16T04:05:46.922Z,13.07
2023-04-16T04:08:16.953Z,12.68
2023-04-16T04:10:45.997Z,12.89
2023-04-16T04:13:14.516Z,12.85
2023-04-16T04:15:41.720Z,13.09
2023-04-16T04:18:08.947Z,13.16
2023-04-16T04:20:40.017Z,12.98
2023-04-16T04:23:07.960Z,13.21
2023-04-16T04:25:36.001Z,13.35
2023-04-16T04:28:03.291Z,13.41
2023-04-16T04:30:30.763Z,13.49
2023-04-16T04:32:58.079Z,13.53
2023-04-16T04:35:25.354Z,13.53
2023-04-16T04:37:53.181Z,13.49
2023-04-16T04:40:21.196Z,12.91
2023-04-16T04:42:48.494Z,12.94
2023-04-16T04:45:16.239Z,12.88
2023-04-16T04:47:43.528Z,12.94
2023-04-16T04:50:11.327Z,12.87
2023-04-16T04:52:38.866Z,12.68
2023-04-16T04:55:07.722Z,12.47
2023-04-16T04:57:35.685Z,12.32
2023-04-16T05:00:04.478Z,12.58
2023-04-16T05:02:40.092Z,12.71
2023-04-16T05:05:07.750Z,12.48
2023-04-16T05:07:34.981Z,12.80
2023-04-16T05:10:02.071Z,12.44
2023-04-16T05:12:29.248Z,12.51
2023-04-16T05:14:56.421Z,12.55
2023-04-16T05:17:23.636Z,12.35
2023-04-16T05:19:51.139Z,12.18
2023-04-16T05:22:19.151Z,12.46
2023-04-16T05:24:46.386Z,12.30
2023-04-16T05:27:13.499Z,12.14
2023-04-16T05:29:40.784Z,12.42
2023-04-16T05:32:08.060Z,12.05
2023-04-16T05:34:35.154Z,12.13
2023-04-16T05:37:02.368Z,11.68
2023-04-16T05:39:29.442Z,11.60
2023-04-16T05:41:56.541Z,12.24
2023-04-16T05:44:23.802Z,12.54
2023-04-16T05:46:50.936Z,12.38
2023-04-16T05:49:21.681Z,12.36
2023-04-16T05:51:50.711Z,12.21
2023-04-16T05:54:18.040Z,12.19
2023-04-16T05:56:45.263Z,12.25
2023-04-16T05:59:12.534Z,12.22
2023-04-16T06:01:39.712Z,12.23
2023-04-16T06:04:06.905Z,12.02
2023-04-16T06:06:34.062Z,12.12
2023-04-16T06:09:01.218Z,12.41
2023-04-16T06:11:30.113Z,12.12
2023-04-16T06:13:57.282Z,12.39
2023-04-16T06:16:24.481Z,12.41
2023-04-16T06:18:51.723Z,12.42
2023-04-16T06:21:18.922Z,12.51
2023-04-16T06:23:46.190Z,12.43
2023-04-16T06:26:13.393Z,12.53
2023-04-16T06:28:40.539Z,12.56
2023-04-16T06:31:07.793Z,12.58
2023-04-16T06:33:35.210Z,12.65
2023-04-16T06:36:02.368Z,12.65
2023-04-16T06:38:29.524Z,12.66
2023-04-16T06:40:56.827Z,12.82
2023-04-16T06:43:24.071Z,12.85
2023-04-16T06:45:51.399Z,12.93
2023-04-16T06:48:18.670Z,12.52
2023-04-16T06:50:46.092Z,12.98
2023-04-16T06:53:13.312Z,13.39
2023-04-16T06:55:40.395Z,13.37
2023-04-16T06:58:07.548Z,13.35
2023-04-16T07:00:34.769Z,13.35
2023-04-16T07:03:02.369Z,13.59
2023-04-16T07:05:29.722Z,13.59
2023-04-16T07:07:57.794Z,13.45
2023-04-16T07:10:25.594Z,13.68
2023-04-16T07:12:52.949Z,13.58
2023-04-16T07:15:20.150Z,13.88
2023-04-16T07:17:47.392Z,13.90
2023-04-16T07:20:14.728Z,13.95
2023-04-16T07:22:41.886Z,14.17
2023-04-16T07:25:09.841Z,14.22
2023-04-16T07:27:36.921Z,14.35
2023-04-16T07:30:04.474Z,14.34
2023-04-16T07:32:31.785Z,14.48
2023-04-16T07:34:58.931Z,14.25
2023-04-16T07:37:26.092Z,14.11
2023-04-16T07:39:54.114Z,14.41
2023-04-16T07:42:22.826Z,14.27
2023-04-16T07:44:49.914Z,14.30
2023-04-16T07:47:17.116Z,14.47
2023-04-16T07:49:44.270Z,13.54
2023-04-16T07:52:12.133Z,14.20
2023-04-16T07:54:39.394Z,14.05
2023-04-16T07:57:06.421Z,14.09
2023-04-16T07:59:33.622Z,13.69
2023-04-16T08:02:00.880Z,14.06
2023-04-16T08:04:28.263Z,13.40
2023-04-16T08:06:55.900Z,13.66
2023-04-16T08:09:24.286Z,13.62
2023-04-16T08:11:51.481Z,13.49
2023-04-16T08:14:18.632Z,13.51
2023-04-16T08:16:45.985Z,13.31
2023-04-16T08:19:13.340Z,13.86
2023-04-16T08:21:40.798Z,13.91
2023-04-16T08:24:08.242Z,13.48
2023-04-16T08:26:36.086Z,13.80
2023-04-16T08:29:03.289Z,13.60
2023-04-16T08:31:30.674Z,13.68
2023-04-16T08:33:57.948Z,13.56
2023-04-16T08:36:25.148Z,13.69
2023-04-16T08:38:52.471Z,13.49
2023-04-16T08:41:22.713Z,13.89
2023-04-16T08:43:54.680Z,14.02
2023-04-16T08:46:25.256Z,14.07
2023-04-16T08:48:56.312Z,14.14
2023-04-16T08:51:24.327Z,14.12
2023-04-16T08:54:03.027Z,14.19
2023-04-16T08:56:32.200Z,14.31
2023-04-16T08:59:02.115Z,14.40
2023-04-16T09:01:33.962Z,14.28
2023-04-16T09:04:01.849Z,14.51
2023-04-16T09:06:31.913Z,13.85
2023-04-16T09:09:01.848Z,14.37
2023-04-16T09:11:29.790Z,14.62
2023-04-16T09:13:58.019Z,14.35
2023-04-16T09:16:31.539Z,14.55
2023-04-16T09:18:59.203Z,14.35
2023-04-16T09:21:26.576Z,14.62
2023-04-16T09:23:54.208Z,14.22
2023-04-16T09:26:22.026Z,14.68
2023-04-16T09:28:51.438Z,14.60
2023-04-16T09:31:20.226Z,14.03
2023-04-16T09:34:08.709Z,14.86
2023-04-16T09:36:36.986Z,14.77
2023-04-16T09:39:04.368Z,14.82
2023-04-16T09:41:36.117Z,14.62
2023-04-16T09:44:05.453Z,14.52
2023-04-16T09:46:43.129Z,14.60
2023-04-16T09:49:18.750Z,14.57
2023-04-16T09:51:49.815Z,14.54
2023-04-16T09:54:16.882Z,14.70
2023-04-16T09:56:46.354Z,14.98
2023-04-16T09:59:21.592Z,14.99
2023-04-16T10:01:50.152Z,15.06
2023-04-16T10:04:17.675Z,14.83
2023-04-16T10:06:46.997Z,14.84
2023-04-16T10:09:14.188Z,15.06
2023-04-16T10:11:41.492Z,15.20
2023-04-16T10:14:09.408Z,15.03
2023-04-16T10:16:37.172Z,15.11
2023-04-16T10:19:05.055Z,15.27
2023-04-16T10:21:34.457Z,15.17
2023-04-16T10:24:03.001Z,15.04
2023-04-16T10:26:31.344Z,15.01
2023-04-16T10:28:58.997Z,15.07
2023-04-16T10:31:27.541Z,15.14
2023-04-16T10:33:56.340Z,15.31
2023-04-16T10:36:24.931Z,15.33
2023-04-16T10:38:53.263Z,15.54
2023-04-16T10:41:21.284Z,15.42
2023-04-16T10:43:51.937Z,15.77
2023-04-16T10:46:31.047Z,15.92
2023-04-16T10:49:12.707Z,15.92
2023-04-16T10:51:39.918Z,15.93
2023-04-16T10:54:12.734Z,16.28
2023-04-16T10:56:40.159Z,16.32
2023-04-16T10:59:08.107Z,16.31
2023-04-16T11:01:37.215Z,16.00
2023-04-16T11:04:19.952Z,16.59
2023-04-16T11:07:15.041Z,16.57
2023-04-16T11:10:13.057Z,16.57
2023-04-16T11:12:42.225Z,16.51
2023-04-16T11:15:12.634Z,16.54
2023-04-16T11:17:51.014Z,16.63
2023-04-16T11:20:21.106Z,16.86
2023-04-16T11:22:49.974Z,17.01
2023-04-16T11:25:31.791Z,16.96
2023-04-16T11:27:59.321Z,17.15
2023-04-16T11:30:37.253Z,17.30
2023-04-16T11:33:13.554Z,17.22
2023-04-16T11:35:41.532Z,17.24
2023-04-16T11:38:08.959Z,16.98
2023-04-16T11:40:36.521Z,17.37
2023-04-16T11:43:24.103Z,17.47
2023-04-16T11:46:07.471Z,17.17
2023-04-16T11:48:51.285Z,17.56
2023-04-16T11:51:19.780Z,17.44
2023-04-16T11:53:54.483Z,17.42
2023-04-16T11:56:31.648Z,17.50
2023-04-16T11:59:19.113Z,17.57
2023-04-16T12:01:51.891Z,17.42
2023-04-16T12:04:22.760Z,17.15
2023-04-16T12:07:10.127Z,17.46
2023-04-16T12:09:40.428Z,17.38
2023-04-16T12:12:32.110Z,17.69
2023-04-16T12:15:02.071Z,17.64
2023-04-16T12:17:30.276Z,17.83
2023-04-16T12:20:00.813Z,17.76
2023-04-16T12:22:32.653Z,17.83
2023-04-16T12:25:03.803Z,17.92
2023-04-16T12:27:53.677Z,17.94
2023-04-16T12:30:23.266Z,18.01
2023-04-16T12:32:52.785Z,18.16
2023-04-16T12:35:32.094Z,18.09
2023-04-16T12:37:59.835Z,18.04
2023-04-16T12:40:27.781Z,18.41
2023-04-16T12:42:55.149Z,18.44
2023-04-16T12:45:22.549Z,18.46
2023-04-16T12:47:50.703Z,18.63
2023-04-16T12:50:18.606Z,18.38
2023-04-16T12:52:46.050Z,18.69
2023-04-16T12:55:14.247Z,18.81
2023-04-16T12:57:41.600Z,17.78
2023-04-16T13:00:10.932Z,18.35
2023-04-16T13:02:38.349Z,18.54
2023-04-16T13:05:05.960Z,18.69
2023-04-16T13:07:34.151Z,18.80
2023-04-16T13:10:01.569Z,18.65
2023-04-16T13:12:28.740Z,18.62
2023-04-16T13:14:56.607Z,18.56
2023-04-16T13:17:24.029Z,18.28
2023-04-16T13:19:51.193Z,18.46
2023-04-16T13:22:18.313Z,18.07
2023-04-16T13:24:46.195Z,18.04
2023-04-16T13:27:15.282Z,18.01
2023-04-16T13:29:42.531Z,18.49
2023-04-16T13:32:10.015Z,18.40
2023-04-16T13:34:37.486Z,18.78
2023-04-16T13:37:04.740Z,18.77
2023-04-16T13:39:31.850Z,18.81
2023-04-16T13:41:58.991Z,18.93
2023-04-16T13:44:26.197Z,18.95
2023-04-16T13:46:53.592Z,18.49
2023-04-16T13:49:20.832Z,17.96
2023-04-16T13:51:48.101Z,18.28
2023-04-16T13:54:15.235Z,17.98
2023-04-16T13:56:43.168Z,18.71
2023-04-16T13:59:11.345Z,18.73
2023-04-16T14:01:39.777Z,18.90
2023-04-16T14:04:07.675Z,18.87
2023-04-16T14:06:35.019Z,18.33
2023-04-16T14:09:02.448Z,19.14
2023-04-16T14:11:29.787Z,18.86
2023-04-16T14:13:56.995Z,18.70
2023-04-16T14:16:24.375Z,18.82
2023-04-16T14:18:52.098Z,18.83
2023-04-16T14:21:19.363Z,18.86
2023-04-16T14:23:48.161Z,18.80
2023-04-16T14:26:15.610Z,18.93
2023-04-16T14:28:42.879Z,19.15
2023-04-16T14:31:10.094Z,19.01
2023-04-16T14:33:37.174Z,19.04
2023-04-16T14:36:04.637Z,18.64
2023-04-16T14:38:32.117Z,18.23
2023-04-16T14:41:00.630Z,18.17
2023-04-16T14:43:28.140Z,18.65
2023-04-16T14:45:59.122Z,18.46
2023-04-16T14:48:26.358Z,18.53
2023-04-16T14:50:54.074Z,18.61
2023-04-16T14:53:23.082Z,18.54
2023-04-16T14:55:50.615Z,18.46
2023-04-16T14:58:17.834Z,18.48
2023-04-16T15:00:45.009Z,18.42
2023-04-16T15:03:12.323Z,18.35
2023-04-16T15:05:39.607Z,18.30
2023-04-16T15:08:07.411Z,18.38
2023-04-16T15:10:35.205Z,18.37
2023-04-16T15:13:02.336Z,18.25
2023-04-16T15:15:29.524Z,18.16
2023-04-16T15:17:57.822Z,18.31
2023-04-16T15:20:25.049Z,18.18
2023-04-16T15:22:53.676Z,18.06
2023-04-16T15:25:21.076Z,18.46
2023-04-16T15:27:48.233Z,18.47
2023-04-16T15:30:15.820Z,18.41
2023-04-16T15:32:44.789Z,18.62
2023-04-16T15:35:13.495Z,18.25
2023-04-16T15:37:41.054Z,18.38
2023-04-16T15:40:08.684Z,18.40
2023-04-16T15:42:35.746Z,18.15
2023-04-16T15:45:02.963Z,18.15
2023-04-16T15:47:30.347Z,18.11
2023-04-16T15:49:57.539Z,18.38
2023-04-16T15:52:24.643Z,18.24
2023-04-16T15:54:51.870Z,18.58
2023-04-16T15:57:19.278Z,18.51
2023-04-16T15:59:59.518Z,18.05
2023-04-16T16:02:34.188Z,18.33
2023-04-16T16:05:01.617Z,18.10
2023-04-16T16:07:28.898Z,18.20
2023-04-16T16:09:56.442Z,18.24
2023-04-16T16:12:23.577Z,18.08
2023-04-16T16:14:51.030Z,18.18
2023-04-16T16:17:20.366Z,18.12
2023-04-16T16:19:47.646Z,17.98
2023-04-16T16:22:16.029Z,18.22
2023-04-16T16:24:43.235Z,18.22
2023-04-16T16:27:28.938Z,18.23
2023-04-16T16:29:56.074Z,18.33
2023-04-16T16:32:23.284Z,18.35
2023-04-16T16:34:50.506Z,18.48
2023-04-16T16:37:17.677Z,18.52
2023-04-16T16:39:44.847Z,18.72
2023-04-16T16:42:12.073Z,18.59
2023-04-16T16:44:39.324Z,18.76
2023-04-16T16:47:06.680Z,18.58
2023-04-16T16:49:33.945Z,18.50
2023-04-16T16:52:01.095Z,18.71
2023-04-16T16:54:28.443Z,18.71
2023-04-16T16:56:55.662Z,18.75
2023-04-16T16:59:22.753Z,18.49
2023-04-16T17:01:49.969Z,18.51
2023-04-16T17:04:20.055Z,18.68
2023-04-16T17:06:47.627Z,18.59
2023-04-16T17:09:14.937Z,18.70
2023-04-16T17:11:42.076Z,18.51
2023-04-16T17:14:09.274Z,18.65
2023-04-16T17:16:36.742Z,18.64
2023-04-16T17:19:04.017Z,18.62
2023-04-16T17:21:33.437Z,18.58
2023-04-16T17:24:00.650Z,18.53
2023-04-16T17:26:27.795Z,18.44
2023-04-16T17:28:56.749Z,18.28
2023-04-16T17:31:25.605Z,18.28
2023-04-16T17:33:54.103Z,18.03
2023-04-16T17:36:23.233Z,18.09
2023-04-16T17:38:50.723Z,18.05
2023-04-16T17:41:18.139Z,17.99
2023-04-16T17:43:49.801Z,17.74
2023-04-16T17:46:17.210Z,18.14
2023-04-16T17:48:44.434Z,18.00
2023-04-16T17:51:12.257Z,18.11
2023-04-16T17:53:39.644Z,18.01
2023-04-16T17:56:06.922Z,18.04
2023-04-16T17:58:35.412Z,17.96
2023-04-16T18:01:03.516Z,17.89
2023-04-16T18:03:32.129Z,17.94
2023-04-16T18:05:59.585Z,17.83
2023-04-16T18:08:27.520Z,17.51
2023-04-16T18:10:55.656Z,17.49
2023-04-16T18:13:25.997Z,17.31
2023-04-16T18:15:53.878Z,17.19
2023-04-16T18:18:21.499Z,17.27
2023-04-16T18:20:48.849Z,17.19
2023-04-16T18:23:16.096Z,17.00
2023-04-16T18:25:43.306Z,16.81
2023-04-16T18:28:13.674Z,16.92
2023-04-16T18:30:41.380Z,16.70
2023-04-16T18:33:34.420Z,16.45
2023-04-16T18:35:55.811Z,-145.43
2023-04-16T18:38:22.922Z,-145.43
2023-04-16T18:40:50.003Z,-145.43
2023-04-16T18:43:17.134Z,-145.43
2023-04-16T18:45:44.186Z,-145.43
2023-04-16T18:48:11.536Z,-145.43
2023-04-16T18:50:38.666Z,-145.43
2023-04-16T18:53:05.907Z,-145.43
2023-04-16T18:55:33.111Z,-145.43
2023-04-16T18:58:00.237Z,-145.43
2023-04-16T19:00:27.535Z,-145.43
2023-04-16T19:02:54.832Z,-145.43
2023-04-16T19:05:23.132Z,-145.43
2023-04-16T19:07:50.496Z,-145.43
2023-04-16T19:10:17.750Z,-145.43
2023-04-16T19:12:44.867Z,-145.43
2023-04-16T19:15:12.018Z,-145.43
2023-04-16T19:17:39.928Z,-145.43
2023-04-16T19:20:11.625Z,-145.43
2023-04-16T19:22:38.862Z,-145.43
2023-04-16T19:25:07.312Z,-145.43
2023-04-16T19:27:35.000Z,-145.43
2023-04-16T19:30:03.182Z,-145.43
2023-04-16T19:32:30.861Z,-145.43
2023-04-16T19:34:58.080Z,-145.43
2023-04-16T19:37:25.219Z,-145.43
2023-04-16T19:39:52.348Z,-145.43
2023-04-16T19:42:19.478Z,-145.43
2023-04-16T19:44:46.710Z,-145.43
2023-04-16T19:47:14.015Z,-145.43
2023-04-16T19:49:43.625Z,-145.43
2023-04-16T19:52:10.871Z,-145.43
2023-04-16T19:54:37.983Z,-145.43
2023-04-16T19:57:05.169Z,-145.43
2023-04-16T19:59:32.380Z,-145.43
2023-04-16T20:01:59.605Z,-145.43
2023-04-16T20:04:27.362Z,-145.43
2023-04-16T20:06:54.644Z,-145.43
2023-04-16T20:09:21.783Z,-145.43
2023-04-16T20:11:49.203Z,-145.43
2023-04-16T20:14:17.325Z,-145.43
2023-04-16T20:17:03.561Z,-145.43
2023-04-16T20:19:33.733Z,-145.43
2023-04-16T20:22:00.899Z,-145.43
2023-04-16T20:24:31.094Z,-145.43
2023-04-16T20:26:58.208Z,-145.43
2023-04-16T20:29:25.404Z,-145.43
2023-04-16T20:31:52.748Z,-145.43
2023-04-16T20:34:19.942Z,-145.43
2023-04-16T20:36:47.012Z,-145.43
2023-04-16T20:39:14.220Z,-145.43
2023-04-16T20:41:44.317Z,-145.43
2023-04-16T20:44:18.233Z,-145.43
2023-04-16T20:46:49.901Z,-145.43
2023-04-16T20:49:18.571Z,-145.43
2023-04-16T20:51:45.808Z,-145.43
2023-04-16T20:54:13.075Z,-145.43
2023-04-16T20:56:40.270Z,-145.43
2023-04-16T20:59:07.308Z,-145.43
2023-04-16T21:01:34.642Z,-145.43
2023-04-16T21:04:02.063Z,-145.43
2023-04-16T21:06:32.935Z,-145.43
2023-04-16T21:09:00.070Z,-145.43
2023-04-16T21:11:29.374Z,-145.43
2023-04-16T21:13:56.558Z,-145.43
2023-04-16T21:16:23.646Z,-145.43
2023-04-16T21:18:50.837Z,-145.43
2023-04-16T21:21:19.168Z,-145.43
2023-04-16T21:23:46.182Z,-145.43
2023-04-16T21:26:13.320Z,-145.43
2023-04-16T21:28:40.487Z,-145.43
2023-04-16T21:31:07.557Z,-145.43
2023-04-16T21:33:34.752Z,-145.43
2023-04-16T21:36:01.971Z,-145.43
2023-04-16T21:38:29.010Z,-145.43
2023-04-16T21:40:56.915Z,-145.43
2023-04-16T21:43:24.291Z,-145.43
2023-04-16T21:45:54.922Z,-145.43
2023-04-16T21:48:22.687Z,-145.43
2023-04-16T21:50:59.984Z,-145.43
2023-04-16T21:53:28.180Z,-145.43
2023-04-16T21:55:55.303Z,-145.43
2023-04-16T21:58:22.330Z,-145.43
2023-04-16T22:00:49.524Z,-145.43
2023-04-16T22:03:17.431Z,-145.43
2023-04-16T22:05:45.974Z,-145.43
2023-04-16T22:08:24.214Z,-145.43
2023-04-16T22:10:51.857Z,-145.43
2023-04-16T22:13:19.028Z,-145.43
2023-04-16T22:15:46.243Z,-145.43
2023-04-16T22:18:13.254Z,-145.43
2023-04-16T22:20:40.452Z,-145.43
2023-04-16T22:23:07.482Z,-145.43
2023-04-16T22:25:34.569Z,-145.43
2023-04-16T22:28:01.800Z,-145.43
2023-04-16T22:30:28.945Z,-145.43
2023-04-16T22:32:56.038Z,-145.43
2023-04-16T22:35:23.128Z,-145.43
2023-04-16T22:37:50.143Z,-145.43
2023-04-16T22:40:17.306Z,-145.43
2023-04-16T22:42:44.448Z,-145.43
2023-04-16T22:45:12.750Z,-145.43
2023-04-16T22:47:39.840Z,-145.43
2023-04-16T22:50:07.768Z,-145.43
2023-04-16T22:52:34.947Z,-145.43
2023-04-16T22:55:02.045Z,-145.43
2023-04-16T22:57:29.118Z,-145.43
2023-04-16T22:59:56.417Z,-145.43
2023-04-16T23:02:23.868Z,-145.43
2023-04-16T23:04:51.076Z,-145.43
2023-04-16T23:07:18.286Z,-145.43
2023-04-16T23:09:45.368Z,-145.43
2023-04-16T23:12:12.502Z,-145.43
2023-04-16T23:14:39.701Z,-145.43
2023-04-16T23:17:06.908Z,-145.43
2023-04-16T23:19:34.058Z,-145.43
2023-04-16T23:22:01.067Z,-145.43
2023-04-16T23:24:28.210Z,-145.43
2023-04-16T23:26:56.136Z,-145.43
2023-04-16T23:29:23.884Z,-145.43
2023-04-16T23:31:51.180Z,-145.43
2023-04-16T23:34:18.304Z,-145.43
2023-04-16T23:36:46.090Z,-145.43
2023-04-16T23:39:13.400Z,-145.43
2023-04-16T23:41:40.682Z,-145.43
2023-04-16T23:44:07.833Z,-145.43
2023-04-16T23:46:35.124Z,-145.43
2023-04-16T23:49:02.293Z,-145.43
2023-04-16T23:51:29.298Z,-145.43
2023-04-16T23:53:56.413Z,-145.43
2023-04-16T23:56:23.520Z,-145.43
2023-04-16T23:58:50.580Z,-145.43
